Terminal Aerodrome Forecast
Issued by NWS Mt. Holly, NJ

Home | Current Version | Previous Version | Text Only | Print | Product List | Glossary On
Versions: 1 2 3 4 5 6 7 8 9 10 11 12 13 14 15 16 17 18
000
FTUS41 KPHI 280559
TAFTTN
TAF
KTTN 280559Z 2806/2906 00000KT 6SM BR FEW007 BKN015
      TEMPO 2808/2811 1/2SM FG SCT003
     FM281100 VRB03KT 2SM BR SCT015
     FM281300 05005KT P6SM SCT025 BKN250
     FM282200 10006KT P6SM VCSH OVC035 PROB30 2900/2903 5SM -TSRA
      OVC030CB
     FM290300 06007KT 3SM SHRA SCT015 OVC050 PROB30 2903/2906 1
      1/2SM TSRA OVC025CB=

USA.gov is the U.S. government's official web portal to all federal, state and local government web resources and services.